BAW925 EDDL-EGLL
Flight info
| Callsign | BAW925 |
|---|---|
| Flight time | 0h 53m |
| Altitude | 24000 |
| Route | NETEX6T NETEX Z282 DIBIR L179 SASKI L608 LOGAN LOGAN2H |
| Aircraft | A21N/M-SDE3FGHIJ1LRWXYZ/SB1G1 |
Departure
| Time | 2026-05-04 05:17 |
|---|---|
| Airport | Düsseldorf Airport (EDDL) |
Arrival
| Time | 2026-05-04 06:11 |
|---|---|
| Airport | London Heathrow Airport (EGLL) |
| Time | Latitude | Longitude | Altitude | Speed | Heading |
|---|---|---|---|---|---|
| 2026-05-04 04:34 | 51.27739 | 6.76156 | 136 ft | 0 kts | 159° |
| 2026-05-04 05:06 | 51.27779 | 6.76135 | 136 ft | 4 kts | 172° |
| 2026-05-04 05:06 | 51.27803 | 6.76135 | 136 ft | 4 kts | 189° |
| 2026-05-04 05:06 | 51.27827 | 6.76147 | 136 ft | 5 kts | 216° |
| 2026-05-04 05:07 | 51.27841 | 6.76177 | 136 ft | 5 kts | 261° |
| 2026-05-04 05:07 | 51.27841 | 6.76220 | 136 ft | 4 kts | 275° |
| 2026-05-04 05:07 | 51.27840 | 6.76236 | 136 ft | 0 kts | 269° |
| 2026-05-04 05:10 | 51.27840 | 6.76225 | 136 ft | 2 kts | 271° |
| 2026-05-04 05:10 | 51.27841 | 6.76191 | 136 ft | 4 kts | 271° |
| 2026-05-04 05:10 | 51.27841 | 6.76153 | 136 ft | 4 kts | 271° |
| 2026-05-04 05:10 | 51.27844 | 6.76096 | 136 ft | 6 kts | 286° |
| 2026-05-04 05:11 | 51.27879 | 6.76048 | 136 ft | 8 kts | 350° |
| 2026-05-04 05:11 | 51.27941 | 6.76048 | 136 ft | 10 kts | 2° |
| 2026-05-04 05:11 | 51.28011 | 6.76048 | 135 ft | 11 kts | 360° |
| 2026-05-04 05:11 | 51.28087 | 6.76040 | 135 ft | 12 kts | 342° |
| 2026-05-04 05:12 | 51.28154 | 6.76071 | 135 ft | 12 kts | 53° |
| 2026-05-04 05:12 | 51.28204 | 6.76178 | 134 ft | 12 kts | 53° |
| 2026-05-04 05:12 | 51.28257 | 6.76292 | 133 ft | 13 kts | 53° |
| 2026-05-04 05:12 | 51.28314 | 6.76411 | 132 ft | 14 kts | 53° |
| 2026-05-04 05:13 | 51.28376 | 6.76541 | 131 ft | 15 kts | 53° |
| 2026-05-04 05:13 | 51.28444 | 6.76683 | 131 ft | 17 kts | 52° |
| 2026-05-04 05:13 | 51.28520 | 6.76841 | 133 ft | 19 kts | 52° |
| 2026-05-04 05:13 | 51.28604 | 6.77013 | 135 ft | 20 kts | 52° |
| 2026-05-04 05:14 | 51.28692 | 6.77202 | 135 ft | 22 kts | 53° |
| 2026-05-04 05:14 | 51.28787 | 6.77400 | 135 ft | 23 kts | 53° |
| 2026-05-04 05:14 | 51.28887 | 6.77610 | 135 ft | 24 kts | 53° |
| 2026-05-04 05:14 | 51.28993 | 6.77833 | 135 ft | 26 kts | 53° |
| 2026-05-04 05:15 | 51.29105 | 6.78068 | 138 ft | 27 kts | 53° |
| 2026-05-04 05:15 | 51.29224 | 6.78318 | 146 ft | 26 kts | 53° |
| 2026-05-04 05:15 | 51.29300 | 6.78476 | 153 ft | 13 kts | 52° |
| 2026-05-04 05:15 | 51.29354 | 6.78569 | 157 ft | 10 kts | 20° |
| 2026-05-04 05:16 | 51.29429 | 6.78570 | 158 ft | 12 kts | 352° |
| 2026-05-04 05:16 | 51.29513 | 6.78552 | 159 ft | 10 kts | 332° |
| 2026-05-04 05:16 | 51.29522 | 6.78476 | 157 ft | 8 kts | 233° |
| 2026-05-04 05:16 | 51.29479 | 6.78385 | 155 ft | 21 kts | 233° |
| 2026-05-04 05:17 | 51.29228 | 6.77849 | 143 ft | 97 kts | 231° |
| 2026-05-04 05:17 | 51.28688 | 6.76738 | 141 ft | 152 kts | 230° |
| 2026-05-04 05:17 | 51.28063 | 6.75391 | 654 ft | 150 kts | 231° |
| 2026-05-04 05:17 | 51.27432 | 6.74054 | 1202 ft | 150 kts | 232° |
| 2026-05-04 05:18 | 51.26889 | 6.72495 | 1538 ft | 175 kts | 250° |
| 2026-05-04 05:18 | 51.26867 | 6.70457 | 1961 ft | 203 kts | 287° |
| 2026-05-04 05:18 | 51.27550 | 6.68259 | 2339 ft | 237 kts | 298° |
| 2026-05-04 05:18 | 51.28389 | 6.65882 | 3094 ft | 251 kts | 297° |
| 2026-05-04 05:19 | 51.29220 | 6.63390 | 4040 ft | 257 kts | 296° |
| 2026-05-04 05:19 | 51.30058 | 6.60848 | 5032 ft | 260 kts | 296° |
| 2026-05-04 05:19 | 51.30902 | 6.58291 | 6006 ft | 263 kts | 296° |
| 2026-05-04 05:19 | 51.31767 | 6.55673 | 6952 ft | 266 kts | 295° |
| 2026-05-04 05:20 | 51.32634 | 6.53041 | 7875 ft | 269 kts | 295° |
| 2026-05-04 05:20 | 51.33509 | 6.50378 | 8833 ft | 273 kts | 295° |
| 2026-05-04 05:20 | 51.34398 | 6.47677 | 9785 ft | 276 kts | 294° |
| 2026-05-04 05:20 | 51.35308 | 6.44892 | 10388 ft | 293 kts | 293° |
| 2026-05-04 05:21 | 51.36066 | 6.41752 | 10717 ft | 313 kts | 280° |
| 2026-05-04 05:21 | 51.36182 | 6.38216 | 11157 ft | 325 kts | 261° |
| 2026-05-04 05:21 | 51.35525 | 6.34743 | 11908 ft | 329 kts | 244° |
| 2026-05-04 05:21 | 51.34422 | 6.31517 | 12767 ft | 332 kts | 240° |
| 2026-05-04 05:22 | 51.33260 | 6.28305 | 13629 ft | 336 kts | 239° |
| 2026-05-04 05:22 | 51.32094 | 6.25044 | 14400 ft | 339 kts | 240° |
| 2026-05-04 05:22 | 51.30934 | 6.21742 | 15130 ft | 343 kts | 240° |
| 2026-05-04 05:22 | 51.29766 | 6.18391 | 15856 ft | 347 kts | 240° |
| 2026-05-04 05:23 | 51.28584 | 6.15004 | 16565 ft | 351 kts | 240° |
| 2026-05-04 05:23 | 51.27405 | 6.11554 | 17263 ft | 356 kts | 242° |
| 2026-05-04 05:23 | 51.26269 | 6.08027 | 17941 ft | 360 kts | 242° |
| 2026-05-04 05:23 | 51.25127 | 6.04446 | 18569 ft | 363 kts | 242° |
| 2026-05-04 05:24 | 51.23976 | 6.00836 | 19178 ft | 366 kts | 242° |
| 2026-05-04 05:24 | 51.22909 | 5.97132 | 19780 ft | 370 kts | 249° |
| 2026-05-04 05:24 | 51.22346 | 5.93114 | 20377 ft | 375 kts | 262° |
| 2026-05-04 05:24 | 51.22210 | 5.88934 | 20982 ft | 379 kts | 265° |
| 2026-05-04 05:25 | 51.22139 | 5.84663 | 21579 ft | 382 kts | 265° |
| 2026-05-04 05:25 | 51.22063 | 5.80423 | 22168 ft | 384 kts | 264° |
| 2026-05-04 05:25 | 51.21973 | 5.76151 | 22731 ft | 386 kts | 264° |
| 2026-05-04 05:25 | 51.21874 | 5.71848 | 23267 ft | 389 kts | 264° |
| 2026-05-04 05:26 | 51.21769 | 5.67527 | 23730 ft | 390 kts | 263° |
| 2026-05-04 05:26 | 51.21664 | 5.63259 | 23929 ft | 389 kts | 263° |
| 2026-05-04 05:26 | 51.21557 | 5.58967 | 23966 ft | 387 kts | 263° |
| 2026-05-04 05:26 | 51.21430 | 5.54721 | 23965 ft | 380 kts | 263° |
| 2026-05-04 05:27 | 51.21286 | 5.50511 | 23959 ft | 378 kts | 262° |
| 2026-05-04 05:28 | 51.20264 | 5.21033 | 23967 ft | 381 kts | 262° |
| 2026-05-04 05:29 | 51.20114 | 5.16819 | 23963 ft | 381 kts | 262° |
| 2026-05-04 05:29 | 51.19957 | 5.12608 | 23961 ft | 380 kts | 262° |
| 2026-05-04 05:29 | 51.19806 | 5.08448 | 23960 ft | 381 kts | 262° |
| 2026-05-04 05:29 | 51.19650 | 5.04178 | 23953 ft | 382 kts | 262° |
| 2026-05-04 05:31 | 51.18739 | 4.76113 | 23958 ft | 379 kts | 262° |
| 2026-05-04 05:31 | 51.18581 | 4.71925 | 23967 ft | 377 kts | 262° |
| 2026-05-04 05:32 | 51.18425 | 4.67756 | 23965 ft | 377 kts | 262° |
| 2026-05-04 05:32 | 51.18267 | 4.63583 | 23964 ft | 377 kts | 262° |
| 2026-05-04 05:32 | 51.18108 | 4.59405 | 23965 ft | 378 kts | 262° |
| 2026-05-04 05:33 | 51.17783 | 4.51054 | 23965 ft | 377 kts | 262° |
| 2026-05-04 05:33 | 51.17621 | 4.46892 | 23965 ft | 376 kts | 262° |
| 2026-05-04 05:33 | 51.17461 | 4.42746 | 23965 ft | 374 kts | 262° |
| 2026-05-04 05:33 | 51.17295 | 4.38559 | 23964 ft | 372 kts | 261° |
| 2026-05-04 05:34 | 51.17131 | 4.34455 | 23967 ft | 370 kts | 261° |
| 2026-05-04 05:34 | 51.16966 | 4.30383 | 23965 ft | 367 kts | 261° |
| 2026-05-04 05:34 | 51.16802 | 4.26351 | 23962 ft | 363 kts | 261° |
| 2026-05-04 05:34 | 51.16637 | 4.22348 | 23960 ft | 360 kts | 262° |
| 2026-05-04 05:35 | 51.16659 | 4.18363 | 23956 ft | 361 kts | 270° |
| 2026-05-04 05:35 | 51.17240 | 4.14451 | 23951 ft | 365 kts | 282° |
| 2026-05-04 05:35 | 51.18108 | 4.10667 | 23950 ft | 362 kts | 284° |
| 2026-05-04 05:35 | 51.18989 | 4.06937 | 23948 ft | 357 kts | 284° |
| 2026-05-04 05:36 | 51.19844 | 4.03256 | 23945 ft | 352 kts | 283° |
| 2026-05-04 05:36 | 51.20674 | 3.99613 | 23946 ft | 347 kts | 283° |
| 2026-05-04 05:36 | 51.21480 | 3.96029 | 23941 ft | 341 kts | 283° |
| 2026-05-04 05:36 | 51.22270 | 3.92496 | 23940 ft | 335 kts | 283° |
| 2026-05-04 05:37 | 51.23047 | 3.89016 | 23941 ft | 330 kts | 282° |
| 2026-05-04 05:37 | 51.23805 | 3.85603 | 23940 ft | 324 kts | 282° |
| 2026-05-04 05:37 | 51.24547 | 3.82252 | 23939 ft | 318 kts | 282° |
| 2026-05-04 05:38 | 51.25994 | 3.75737 | 23942 ft | 304 kts | 282° |
| 2026-05-04 05:38 | 51.26694 | 3.72584 | 23935 ft | 297 kts | 282° |
| 2026-05-04 05:38 | 51.27366 | 3.69535 | 23932 ft | 288 kts | 281° |
| 2026-05-04 05:38 | 51.28023 | 3.66560 | 23937 ft | 279 kts | 282° |
| 2026-05-04 05:39 | 51.28656 | 3.63684 | 23931 ft | 270 kts | 282° |
| 2026-05-04 05:39 | 51.29845 | 3.58270 | 23844 ft | 255 kts | 282° |
| 2026-05-04 05:39 | 51.30449 | 3.55494 | 23880 ft | 273 kts | 282° |
| 2026-05-04 05:40 | 51.31768 | 3.49367 | 23991 ft | 313 kts | 283° |
| 2026-05-04 05:40 | 51.32501 | 3.45958 | 23984 ft | 335 kts | 283° |
| 2026-05-04 05:40 | 51.33285 | 3.42325 | 23975 ft | 356 kts | 283° |
| 2026-05-04 05:41 | 51.34118 | 3.38481 | 23975 ft | 375 kts | 284° |
| 2026-05-04 05:41 | 51.35001 | 3.34514 | 23974 ft | 381 kts | 285° |
| 2026-05-04 05:41 | 51.35950 | 3.30548 | 23963 ft | 383 kts | 287° |
| 2026-05-04 05:41 | 51.36900 | 3.26558 | 23949 ft | 383 kts | 286° |
| 2026-05-04 05:42 | 51.37847 | 3.22569 | 23946 ft | 383 kts | 286° |
| 2026-05-04 05:42 | 51.38792 | 3.18581 | 23939 ft | 383 kts | 286° |
| 2026-05-04 05:42 | 51.39735 | 3.14590 | 23942 ft | 383 kts | 286° |
| 2026-05-04 05:42 | 51.40675 | 3.10606 | 23940 ft | 383 kts | 286° |
| 2026-05-04 05:43 | 51.41618 | 3.06620 | 23945 ft | 383 kts | 286° |
| 2026-05-04 05:43 | 51.42556 | 3.02632 | 23948 ft | 383 kts | 286° |
| 2026-05-04 05:43 | 51.43491 | 2.98645 | 23945 ft | 383 kts | 286° |
| 2026-05-04 05:45 | 51.50033 | 2.70600 | 23952 ft | 384 kts | 286° |
| 2026-05-04 05:45 | 51.50961 | 2.66587 | 23953 ft | 384 kts | 286° |
| 2026-05-04 05:47 | 51.57424 | 2.38417 | 23966 ft | 382 kts | 286° |
| 2026-05-04 05:47 | 51.58337 | 2.34411 | 23946 ft | 382 kts | 285° |
| 2026-05-04 05:47 | 51.59249 | 2.30406 | 23951 ft | 382 kts | 286° |
| 2026-05-04 05:48 | 51.60165 | 2.26394 | 23951 ft | 382 kts | 285° |
| 2026-05-04 05:48 | 51.61062 | 2.22439 | 23954 ft | 382 kts | 285° |
| 2026-05-04 05:48 | 51.61984 | 2.18379 | 23945 ft | 382 kts | 285° |
| 2026-05-04 05:48 | 51.62894 | 2.14369 | 23951 ft | 382 kts | 286° |
| 2026-05-04 05:49 | 51.63792 | 2.10406 | 23960 ft | 382 kts | 285° |
| 2026-05-04 05:49 | 51.64693 | 2.06391 | 23954 ft | 381 kts | 285° |
| 2026-05-04 05:49 | 51.65595 | 2.02377 | 23966 ft | 381 kts | 285° |
| 2026-05-04 05:49 | 51.66505 | 1.98306 | 23977 ft | 381 kts | 285° |
| 2026-05-04 05:51 | 51.72735 | 1.70249 | 23990 ft | 380 kts | 285° |
| 2026-05-04 05:51 | 51.73623 | 1.66235 | 24000 ft | 380 kts | 285° |
| 2026-05-04 05:52 | 51.74391 | 1.62190 | 23930 ft | 371 kts | 277° |
| 2026-05-04 05:52 | 51.74588 | 1.58116 | 23617 ft | 360 kts | 264° |
| 2026-05-04 05:52 | 51.74367 | 1.54126 | 23156 ft | 355 kts | 261° |
| 2026-05-04 05:52 | 51.74088 | 1.50189 | 22666 ft | 351 kts | 261° |
| 2026-05-04 05:53 | 51.73810 | 1.46289 | 22151 ft | 349 kts | 261° |
| 2026-05-04 05:54 | 51.72022 | 1.19418 | 18838 ft | 340 kts | 262° |
| 2026-05-04 05:55 | 51.71770 | 1.15628 | 18429 ft | 340 kts | 262° |
| 2026-05-04 05:55 | 51.71515 | 1.11844 | 17978 ft | 340 kts | 262° |
| 2026-05-04 05:55 | 51.71257 | 1.08053 | 17518 ft | 340 kts | 262° |
| 2026-05-04 05:55 | 51.70999 | 1.04259 | 17073 ft | 340 kts | 262° |
| 2026-05-04 05:56 | 51.70742 | 1.00467 | 16623 ft | 341 kts | 262° |
| 2026-05-04 05:56 | 51.70482 | 0.96674 | 16199 ft | 340 kts | 262° |
| 2026-05-04 05:56 | 51.70221 | 0.92886 | 15763 ft | 340 kts | 262° |
| 2026-05-04 05:56 | 51.69956 | 0.89095 | 15319 ft | 341 kts | 262° |
| 2026-05-04 05:57 | 51.69690 | 0.85293 | 14858 ft | 342 kts | 262° |
| 2026-05-04 05:57 | 51.69422 | 0.81478 | 14362 ft | 344 kts | 262° |
| 2026-05-04 05:57 | 51.69150 | 0.77633 | 13859 ft | 346 kts | 262° |
| 2026-05-04 05:57 | 51.68876 | 0.73774 | 13302 ft | 345 kts | 262° |
| 2026-05-04 05:58 | 51.68606 | 0.69955 | 12762 ft | 341 kts | 262° |
| 2026-05-04 05:58 | 51.68338 | 0.66181 | 12243 ft | 337 kts | 262° |
| 2026-05-04 05:58 | 51.68072 | 0.62454 | 11749 ft | 333 kts | 262° |
| 2026-05-04 05:58 | 51.67807 | 0.58770 | 11267 ft | 329 kts | 262° |
| 2026-05-04 05:59 | 51.67544 | 0.55125 | 10825 ft | 325 kts | 262° |
| 2026-05-04 05:59 | 51.67286 | 0.51562 | 10590 ft | 315 kts | 262° |
| 2026-05-04 05:59 | 51.67136 | 0.49504 | 10484 ft | 308 kts | 262° |
| 2026-05-04 05:59 | 51.66957 | 0.47027 | 10384 ft | 299 kts | 262° |
| 2026-05-04 06:00 | 51.66718 | 0.43778 | 10249 ft | 287 kts | 262° |
| 2026-05-04 06:00 | 51.66483 | 0.40611 | 9899 ft | 284 kts | 262° |
| 2026-05-04 06:00 | 51.66249 | 0.37459 | 9457 ft | 283 kts | 262° |
| 2026-05-04 06:00 | 51.66015 | 0.34319 | 8962 ft | 282 kts | 262° |
| 2026-05-04 06:01 | 51.65582 | 0.31274 | 8433 ft | 278 kts | 246° |
| 2026-05-04 06:01 | 51.64673 | 0.28563 | 7900 ft | 274 kts | 239° |
| 2026-05-04 06:03 | 51.58264 | 0.11530 | 6010 ft | 238 kts | 239° |
| 2026-05-04 06:03 | 51.57429 | 0.09266 | 5737 ft | 234 kts | 240° |
| 2026-05-04 06:05 | 51.51653 | -0.05900 | 4026 ft | 224 kts | 238° |
| 2026-05-04 06:05 | 51.50054 | -0.09969 | 3643 ft | 207 kts | 238° |
| 2026-05-04 06:05 | 51.49289 | -0.11906 | 3463 ft | 205 kts | 238° |
| 2026-05-04 06:06 | 51.48531 | -0.13839 | 3308 ft | 205 kts | 242° |
| 2026-05-04 06:06 | 51.48055 | -0.15976 | 3206 ft | 204 kts | 260° |
| 2026-05-04 06:06 | 51.47898 | -0.18230 | 3098 ft | 203 kts | 270° |
| 2026-05-04 06:06 | 51.47944 | -0.20490 | 2907 ft | 202 kts | 271° |
| 2026-05-04 06:07 | 51.47884 | -0.22745 | 2734 ft | 202 kts | 268° |
| 2026-05-04 06:07 | 51.47822 | -0.24982 | 2564 ft | 195 kts | 269° |
| 2026-05-04 06:07 | 51.47810 | -0.27056 | 2493 ft | 178 kts | 272° |
| 2026-05-04 06:07 | 51.47842 | -0.29030 | 2160 ft | 179 kts | 272° |
| 2026-05-04 06:08 | 51.47856 | -0.31045 | 1754 ft | 181 kts | 271° |
| 2026-05-04 06:08 | 51.47850 | -0.33049 | 1364 ft | 178 kts | 270° |
| 2026-05-04 06:08 | 51.47838 | -0.34955 | 1124 ft | 165 kts | 270° |
| 2026-05-04 06:08 | 51.47827 | -0.36722 | 904 ft | 151 kts | 270° |
| 2026-05-04 06:09 | 51.47816 | -0.38370 | 698 ft | 147 kts | 270° |
| 2026-05-04 06:09 | 51.47802 | -0.40010 | 532 ft | 147 kts | 270° |
| 2026-05-04 06:11 | 51.47583 | -0.46941 | 95 ft | 14 kts | 254° |
| 2026-05-04 06:11 | 51.47581 | -0.47104 | 95 ft | 16 kts | 266° |
| 2026-05-04 06:13 | 51.47470 | -0.48476 | 91 ft | 16 kts | 179° |
| 2026-05-04 06:14 | 51.47134 | -0.48606 | 91 ft | 0 kts | 270° |